Time;durP1;ratioP1;P1;durP2;ratioP2;P2;SDS_P1;SDS_P2;PMS_P1;PMS_P2;Temp;Humidity;BMP_temperature;BMP_pressure;BME280_temperature;BME280_humidity;BME280_pressure;Samples;Min_cycle;Max_cycle;Signal;HPM_P1;HPM_P2
2023/06/25 00:00:58;;;;;;;19.85;13.23;;;;;;;-144.73;100.00;54317.38;4998565;28;20112;-72
2023/06/25 00:03:23;;;;;;;18.67;12.73;;;;;;;-144.73;100.00;54346.13;4983634;28;20034;-72
2023/06/25 00:05:49;;;;;;;16.55;12.07;;;;;;;-144.73;100.00;54325.59;4998330;28;20049;-72
2023/06/25 00:08:15;;;;;;;25.38;13.57;;;;;;;-144.73;100.00;54329.72;4997855;28;20022;-72
2023/06/25 00:10:41;;;;;;;20.88;13.68;;;;;;;-144.73;100.00;54292.75;4974273;28;20037;-72
2023/06/25 00:13:07;;;;;;;19.98;13.23;;;;;;;-144.73;100.00;54300.97;4993152;28;20018;-72
2023/06/25 00:15:32;;;;;;;23.27;13.38;;;;;;;-144.73;100.00;54329.72;5008824;28;20041;-72
2023/06/25 00:17:58;;;;;;;25.67;13.02;;;;;;;-144.73;100.00;54296.88;5010352;28;20034;-71
2023/06/25 00:20:24;;;;;;;22.98;12.98;;;;;;;-144.73;100.00;54321.50;5009439;28;20030;-71
2023/06/25 00:22:50;;;;;;;22.05;13.25;;;;;;;-144.73;100.00;54288.66;4975649;28;20100;-72
2023/06/25 00:25:16;;;;;;;23.25;15.05;;;;;;;-144.73;100.00;54325.59;4973588;28;20471;-71
2023/06/25 00:27:47;;;;;;;21.45;13.13;;;;;;;-144.73;100.00;54366.66;4981483;28;20053;-71
2023/06/25 00:30:16;;;;;;;20.07;13.87;;;;;;;-144.73;100.00;54313.28;4991145;28;20037;-71
2023/06/25 00:32:42;;;;;;;27.48;13.73;;;;;;;-144.73;100.00;54280.44;4989615;28;20030;-71
2023/06/25 00:35:12;;;;;;;27.13;14.68;;;;;;;-144.73;100.00;54346.13;4981064;28;20054;-72
2023/06/25 00:37:41;;;;;;;21.13;14.43;;;;;;;-144.73;100.00;54305.06;4982013;28;20041;-71
2023/06/25 00:40:08;;;;;;;26.63;14.55;;;;;;;-144.73;100.00;54292.75;4998428;28;20092;-71
2023/06/25 00:42:41;;;;;;;25.95;14.68;;;;;;;-144.73;100.00;54321.50;4998420;28;20026;-71
2023/06/25 00:45:09;;;;;;;23.75;14.68;;;;;;;-144.73;100.00;54313.28;4994560;28;20033;-72
2023/06/25 00:47:35;;;;;;;20.55;13.73;;;;;;;-144.73;100.00;54313.28;4992242;28;20395;-71
2023/06/25 00:50:02;;;;;;;34.38;15.57;;;;;;;-144.73;100.00;54298.91;5003595;28;20053;-71
2023/06/25 00:52:28;;;;;;;23.35;15.65;;;;;;;-144.73;100.00;54276.34;4980975;28;20097;-72
2023/06/25 00:54:54;;;;;;;26.00;15.77;;;;;;;-144.73;100.00;54309.19;4974626;28;20176;-71
2023/06/25 00:57:21;;;;;;;26.77;15.45;;;;;;;-144.73;100.00;54317.38;4986925;28;20026;-72
2023/06/25 00:59:48;;;;;;;21.00;14.68;;;;;;;-144.73;100.00;54317.38;4990433;28;20037;-72
2023/06/25 01:02:34;;;;;;;26.92;14.95;;;;;;;-144.73;100.00;54321.50;4994843;28;20048;-72
2023/06/25 01:05:05;;;;;;;27.08;16.08;;;;;;;-144.73;100.00;54335.88;4995772;28;20038;-72
2023/06/25 01:07:30;;;;;;;25.70;15.70;;;;;;;-144.73;100.00;54309.19;5009760;28;20026;-71
2023/06/25 01:09:56;;;;;;;27.58;16.80;;;;;;;-144.73;100.00;54346.13;4980634;28;20060;-71
2023/06/25 01:12:22;;;;;;;21.95;15.25;;;;;;;-144.73;100.00;54296.88;4998349;28;20105;-71
2023/06/25 01:14:49;;;;;;;22.67;15.80;;;;;;;-144.73;100.00;54329.72;4980402;28;20050;-71
2023/06/25 01:17:14;;;;;;;26.27;16.77;;;;;;;-144.73;100.00;54307.13;4985520;28;20093;-71
2023/06/25 01:19:40;;;;;;;25.90;16.58;;;;;;;-144.73;100.00;54321.50;4995989;28;20142;-70
2023/06/25 01:22:07;;;;;;;22.42;14.63;;;;;;;-144.73;100.00;54309.19;4984071;28;20026;-70
2023/06/25 01:24:34;;;;;;;23.27;15.68;;;;;;;-144.73;100.00;54280.44;5002492;28;20427;-70
2023/06/25 01:27:00;;;;;;;24.33;16.20;;;;;;;-144.73;100.00;54337.91;4993333;28;20056;-70
2023/06/25 01:29:26;;;;;;;22.80;16.02;;;;;;;-144.73;100.00;54325.59;4983754;28;20022;-71
2023/06/25 01:31:53;;;;;;;23.27;16.20;;;;;;;-144.73;100.00;54342.03;5007834;28;20026;-72
2023/06/25 01:34:20;;;;;;;28.15;16.42;;;;;;;-144.73;100.00;54317.38;4991894;28;20378;-70
2023/06/25 01:36:52;;;;;;;25.15;16.35;;;;;;;-144.73;100.00;54317.38;4999531;28;20060;-70
2023/06/25 01:39:19;;;;;;;28.77;18.65;;;;;;;-144.73;100.00;54325.59;4980047;28;20050;-71
2023/06/25 01:41:45;;;;;;;27.30;16.60;;;;;;;-144.73;100.00;54339.97;4997462;28;20030;-70
2023/06/25 01:44:14;;;;;;;26.08;17.17;;;;;;;-144.73;100.00;54311.22;4985422;28;20025;-70
2023/06/25 01:46:39;;;;;;;25.85;17.55;;;;;;;-144.73;100.00;54317.38;5001875;28;20037;-70
2023/06/25 01:49:05;;;;;;;30.75;19.30;;;;;;;-144.73;100.00;54321.50;4992449;28;20043;-71
2023/06/25 01:51:31;;;;;;;33.70;18.90;;;;;;;-144.73;100.00;54362.53;4983539;28;20130;-71
2023/06/25 01:53:57;;;;;;;22.80;16.02;;;;;;;-144.73;100.00;54344.06;5001673;28;20094;-71
2023/06/25 01:56:23;;;;;;;28.73;17.00;;;;;;;-144.73;100.00;54329.72;4991283;28;20041;-71
2023/06/25 01:58:52;;;;;;;21.80;17.10;;;;;;;-144.73;100.00;54321.50;5008833;28;20022;-71
2023/06/25 02:01:21;;;;;;;28.63;17.23;;;;;;;-144.73;100.00;54309.19;4994992;28;20546;-71
2023/06/25 02:03:46;;;;;;;26.83;16.80;;;;;;;-144.73;100.00;54368.69;4988607;28;20022;-71
2023/06/25 02:06:11;;;;;;;31.13;17.05;;;;;;;-144.73;100.00;54337.91;4987735;28;20406;-71
2023/06/25 02:08:37;;;;;;;26.40;17.77;;;;;;;-144.73;100.00;54311.22;4992149;28;20080;-71
2023/06/25 02:11:02;;;;;;;26.58;16.95;;;;;;;-144.73;100.00;54342.03;4986964;28;20035;-71
2023/06/25 02:13:27;;;;;;;29.48;18.67;;;;;;;-144.73;100.00;54323.53;4990453;28;20427;-71
2023/06/25 02:15:53;;;;;;;28.92;18.67;;;;;;;-144.73;100.00;54374.84;4981636;28;20093;-71
2023/06/25 02:18:18;;;;;;;25.33;16.88;;;;;;;-144.73;100.00;54313.28;4985296;28;20104;-71
2023/06/25 02:20:43;;;;;;;29.15;18.25;;;;;;;-144.73;100.00;54329.72;4998306;28;20034;-71
2023/06/25 02:23:09;;;;;;;31.00;18.55;;;;;;;-144.73;100.00;54342.03;4976130;28;20113;-71
2023/06/25 02:25:34;;;;;;;30.25;18.30;;;;;;;-144.73;100.00;54350.22;4995234;28;20026;-71
2023/06/25 02:27:59;;;;;;;29.73;18.67;;;;;;;-144.73;100.00;54307.13;4999032;28;20030;-71
2023/06/25 02:30:25;;;;;;;29.50;18.67;;;;;;;-144.73;100.00;54329.72;4989655;28;20082;-71
2023/06/25 02:32:51;;;;;;;37.28;22.77;;;;;;;-144.73;100.00;54342.03;4995847;28;20034;-71
2023/06/25 02:35:16;;;;;;;35.92;21.40;;;;;;;-144.73;100.00;54333.81;5011969;28;20029;-71
2023/06/25 02:37:41;;;;;;;31.20;20.50;;;;;;;-144.73;100.00;54358.44;5004064;28;20029;-71
2023/06/25 02:40:09;;;;;;;29.98;18.92;;;;;;;-144.73;100.00;54321.50;4993260;28;20030;-71
2023/06/25 02:42:34;;;;;;;30.75;20.00;;;;;;;-144.73;100.00;54333.81;4993467;28;20026;-71
2023/06/25 02:45:00;;;;;;;32.80;20.42;;;;;;;-144.73;100.00;54366.66;5002157;28;20046;-71
2023/06/25 02:47:25;;;;;;;37.20;22.00;;;;;;;-144.73;100.00;54317.38;4995170;28;20525;-70
2023/06/25 02:49:50;;;;;;;31.35;18.60;;;;;;;-144.73;100.00;54358.44;4981377;28;20042;-71
2023/06/25 02:52:16;;;;;;;27.02;18.17;;;;;;;-144.73;100.00;54393.34;4980176;28;20018;-71
2023/06/25 02:54:41;;;;;;;30.70;18.45;;;;;;;-144.73;100.00;54333.81;4995612;28;20035;-71
2023/06/25 02:57:06;;;;;;;28.75;19.73;;;;;;;-144.73;100.00;54337.91;5007623;28;20110;-71
2023/06/25 02:59:32;;;;;;;29.63;19.67;;;;;;;-144.73;100.00;54329.72;4988784;28;20128;-71
2023/06/25 03:01:57;;;;;;;33.17;18.85;;;;;;;-144.73;100.00;54344.06;4984509;28;20561;-71
2023/06/25 03:04:22;;;;;;;28.70;18.95;;;;;;;-144.73;100.00;54337.91;4985408;28;20030;-71
2023/06/25 03:06:48;;;;;;;29.45;20.02;;;;;;;-144.73;100.00;54352.28;5004170;28;20030;-71
2023/06/25 03:09:13;;;;;;;33.88;18.90;;;;;;;-144.73;100.00;54335.88;4979159;28;20028;-71
2023/06/25 03:11:38;;;;;;;31.83;19.70;;;;;;;-144.73;100.00;54337.91;5002162;28;20042;-71
2023/06/25 03:14:04;;;;;;;32.75;20.98;;;;;;;-144.73;100.00;54327.66;4990887;28;20507;-71
2023/06/25 03:16:29;;;;;;;32.85;20.23;;;;;;;-144.73;100.00;54391.28;4988689;28;20033;-72
2023/06/25 03:18:54;;;;;;;33.72;21.70;;;;;;;-144.73;100.00;54358.44;4988410;28;20022;-71
2023/06/25 03:21:20;;;;;;;35.25;20.55;;;;;;;-144.73;100.00;54331.75;4980414;28;20034;-71
2023/06/25 03:23:45;;;;;;;30.67;19.95;;;;;;;-144.73;100.00;54348.19;4985850;28;20034;-71
2023/06/25 03:26:11;;;;;;;34.42;20.95;;;;;;;-144.73;100.00;54407.69;4982498;28;20041;-71
2023/06/25 03:28:36;;;;;;;33.50;19.65;;;;;;;-144.73;100.00;54350.22;4989941;28;20120;-70
2023/06/25 03:31:01;;;;;;;31.65;19.48;;;;;;;-144.73;100.00;54362.53;4991710;28;20034;-70
2023/06/25 03:33:27;;;;;;;32.17;21.08;;;;;;;-144.73;100.00;54366.66;4986317;28;20068;-70
2023/06/25 03:35:52;;;;;;;33.35;22.10;;;;;;;-144.73;100.00;54358.44;4999831;28;20116;-72
2023/06/25 03:38:17;;;;;;;30.13;20.17;;;;;;;-144.73;100.00;54329.72;4980762;28;20017;-72
2023/06/25 03:40:43;;;;;;;32.60;19.83;;;;;;;-144.73;100.00;54325.59;4992664;28;20506;-72
2023/06/25 03:43:08;;;;;;;29.02;20.33;;;;;;;-144.73;100.00;54360.50;4975857;28;20037;-72
2023/06/25 03:45:34;;;;;;;34.28;20.60;;;;;;;-144.73;100.00;54317.38;4983355;28;20058;-72
2023/06/25 03:47:59;;;;;;;33.13;22.27;;;;;;;-144.73;100.00;54395.38;5003339;28;20030;-72
2023/06/25 03:50:24;;;;;;;32.28;20.52;;;;;;;-144.73;100.00;54378.97;5009758;28;20041;-71
2023/06/25 03:52:50;;;;;;;31.00;21.17;;;;;;;-144.73;100.00;54391.28;5004290;28;20026;-72
2023/06/25 03:55:15;;;;;;;34.13;20.98;;;;;;;-144.73;100.00;54342.03;4991531;28;20441;-72
2023/06/25 03:57:40;;;;;;;33.03;19.80;;;;;;;-144.73;100.00;54352.28;4978567;28;20032;-72
2023/06/25 04:00:06;;;;;;;35.80;20.85;;;;;;;-144.73;100.00;54350.22;4999363;28;20048;-72
2023/06/25 04:02:32;;;;;;;36.83;21.48;;;;;;;-144.73;100.00;54362.53;4990584;28;20026;-72
2023/06/25 04:04:57;;;;;;;36.22;20.40;;;;;;;-144.73;100.00;54378.97;4982718;28;20033;-72
2023/06/25 04:07:22;;;;;;;31.02;20.83;;;;;;;-144.73;100.00;54356.38;5003304;28;20033;-72
2023/06/25 04:09:47;;;;;;;35.08;21.52;;;;;;;-144.73;100.00;54350.22;5009741;28;20096;-72
2023/06/25 04:12:13;;;;;;;37.10;22.75;;;;;;;-144.73;100.00;54350.22;4992031;28;20111;-72
2023/06/25 04:14:38;;;;;;;31.70;21.67;;;;;;;-144.73;100.00;54337.91;4986167;28;20180;-72
2023/06/25 04:17:04;;;;;;;33.22;23.38;;;;;;;-144.73;100.00;54342.03;4984614;28;20075;-72
2023/06/25 04:19:29;;;;;;;34.97;21.02;;;;;;;-144.73;100.00;54346.13;4985671;28;20014;-72
2023/06/25 04:21:54;;;;;;;36.38;20.55;;;;;;;-144.73;100.00;54348.19;4999781;28;20078;-72
2023/06/25 04:24:20;;;;;;;35.33;20.25;;;;;;;-144.73;100.00;54333.81;4998095;28;20073;-70
2023/06/25 04:26:45;;;;;;;27.50;20.00;;;;;;;-144.73;100.00;54368.69;5021209;28;20030;-70
2023/06/25 04:29:11;;;;;;;28.15;19.05;;;;;;;-144.73;100.00;54362.53;4992968;28;20029;-72
2023/06/25 04:31:36;;;;;;;33.22;21.40;;;;;;;-144.73;100.00;54342.03;4992028;28;20030;-72
2023/06/25 04:34:01;;;;;;;30.38;19.98;;;;;;;-144.73;100.00;54378.97;4988867;28;20101;-71
2023/06/25 04:36:27;;;;;;;29.27;19.10;;;;;;;-144.73;100.00;54350.22;4987803;28;20034;-68
2023/06/25 04:38:52;;;;;;;32.72;20.77;;;;;;;-144.73;100.00;54346.13;4988037;28;20017;-70
2023/06/25 04:41:17;;;;;;;29.48;20.13;;;;;;;-144.73;100.00;54342.03;4984586;28;20034;-72
2023/06/25 04:43:43;;;;;;;36.78;20.48;;;;;;;-144.73;100.00;54339.97;4996198;28;20474;-72
2023/06/25 04:46:08;;;;;;;31.73;20.75;;;;;;;-144.73;100.00;54342.03;4983216;28;20033;-72
2023/06/25 04:48:34;;;;;;;32.67;20.95;;;;;;;-144.73;100.00;54376.91;4986676;28;20025;-72
2023/06/25 04:50:59;;;;;;;31.13;21.27;;;;;;;-144.73;100.00;54350.22;5004986;28;20106;-72
2023/06/25 04:53:24;;;;;;;25.38;19.20;;;;;;;-144.73;100.00;54354.34;4979026;28;20112;-72
2023/06/25 04:55:50;;;;;;;28.67;18.35;;;;;;;-144.73;100.00;54333.81;4991946;28;20036;-72
2023/06/25 04:58:15;;;;;;;26.08;17.88;;;;;;;-144.73;100.00;54354.34;4993103;28;20033;-72
2023/06/25 05:00:40;;;;;;;30.27;18.60;;;;;;;-144.73;100.00;54370.75;4994375;28;20034;-72
2023/06/25 05:03:06;;;;;;;25.73;16.60;;;;;;;-144.73;100.00;54325.59;5000261;28;20032;-72
2023/06/25 05:05:32;;;;;;;27.77;18.23;;;;;;;-144.73;100.00;54337.91;4993348;28;20022;-72
2023/06/25 05:07:58;;;;;;;28.27;17.65;;;;;;;-144.73;100.00;54354.34;5001322;28;20030;-72
2023/06/25 05:10:23;;;;;;;27.83;17.10;;;;;;;-144.73;100.00;54352.28;5008063;28;20545;-72
2023/06/25 05:12:48;;;;;;;25.83;17.38;;;;;;;-144.73;100.00;54333.81;4989670;28;20108;-72
2023/06/25 05:15:15;;;;;;;21.92;15.52;;;;;;;-144.73;100.00;54309.19;5006919;28;20089;-72
2023/06/25 05:17:40;;;;;;;22.80;15.73;;;;;;;-144.73;100.00;54370.75;4987250;28;20033;-72
2023/06/25 05:20:06;;;;;;;21.67;14.65;;;;;;;-144.73;100.00;54362.53;4996479;28;20101;-72
2023/06/25 05:22:31;;;;;;;22.67;15.10;;;;;;;-144.73;100.00;54329.72;4979867;28;20033;-72
2023/06/25 05:24:57;;;;;;;21.42;14.63;;;;;;;-144.73;100.00;54329.72;5001162;28;20076;-72
2023/06/25 05:27:22;;;;;;;16.50;13.23;;;;;;;-144.73;100.00;54360.50;4981057;28;20387;-72
2023/06/25 05:29:47;;;;;;;33.50;25.25;;;;;;;-144.73;100.00;54370.75;4988477;28;20041;-72
2023/06/25 05:32:13;;;;;;;22.52;15.70;;;;;;;-144.73;100.00;54300.97;4999864;28;20028;-72
2023/06/25 05:34:38;;;;;;;20.00;13.27;;;;;;;-144.73;100.00;54329.72;4984213;28;20050;-72
2023/06/25 05:37:04;;;;;;;20.45;12.07;;;;;;;-144.73;100.00;54362.53;4981130;28;20029;-72
2023/06/25 05:39:29;;;;;;;20.52;11.80;;;;;;;-144.73;100.00;54362.53;4985512;28;20010;-72
2023/06/25 05:41:56;;;;;;;14.40;11.32;;;;;;;-144.73;100.00;54329.72;5004708;28;20049;-72
2023/06/25 05:44:22;;;;;;;14.70;10.27;;;;;;;-144.73;100.00;54325.59;4997036;28;20060;-72
2023/06/25 05:46:47;;;;;;;20.55;10.55;;;;;;;-144.73;100.00;54346.13;4988076;28;20054;-72
2023/06/25 05:49:12;;;;;;;20.30;10.98;;;;;;;-144.73;100.00;54317.38;4986720;28;20038;-73
2023/06/25 05:51:38;;;;;;;22.40;10.40;;;;;;;-144.73;100.00;54309.19;5007680;28;20052;-72
2023/06/25 05:54:03;;;;;;;15.02;9.93;;;;;;;-144.73;100.00;54352.28;5006602;28;20108;-72
2023/06/25 05:56:29;;;;;;;16.80;10.27;;;;;;;-144.73;100.00;54321.50;5002205;28;20077;-73
2023/06/25 05:58:54;;;;;;;19.73;9.60;;;;;;;-144.73;100.00;54354.34;4982588;28;20029;-73
2023/06/25 06:01:21;;;;;;;12.15;9.35;;;;;;;-144.73;99.75;54358.44;4983125;28;20088;-73
2023/06/25 06:03:47;;;;;;;23.88;9.77;;;;;;;-144.73;99.92;54342.03;5010053;28;20029;-73
2023/06/25 06:06:13;;;;;;;20.95;9.85;;;;;;;-144.73;98.50;54329.72;4989002;28;20406;-73
2023/06/25 06:08:38;;;;;;;12.13;9.20;;;;;;;-144.73;98.38;54329.72;4986070;28;20058;-73
2023/06/25 06:11:04;;;;;;;13.90;8.80;;;;;;;-144.73;95.93;54313.28;4990194;28;20030;-73
2023/06/25 06:13:29;;;;;;;11.50;9.07;;;;;;;-144.73;94.66;54337.91;4999733;28;20046;-73
2023/06/25 06:15:54;;;;;;;10.48;8.23;;;;;;;-144.73;95.54;54315.34;4999569;28;20518;-73
2023/06/25 06:18:20;;;;;;;16.08;8.65;;;;;;;-144.73;93.82;54288.66;5004796;28;20018;-73
2023/06/25 06:20:45;;;;;;;14.60;9.23;;;;;;;-144.73;94.28;54323.53;4987651;28;20054;-73
2023/06/25 06:23:11;;;;;;;15.20;7.55;;;;;;;-144.73;94.81;54339.97;5010497;28;20080;-73
2023/06/25 06:25:36;;;;;;;26.20;17.40;;;;;;;-144.73;92.67;54362.53;4998438;28;20034;-73
2023/06/25 06:28:02;;;;;;;19.02;10.32;;;;;;;-144.73;91.81;54329.72;4978734;28;20022;-73
2023/06/25 06:30:27;;;;;;;14.02;8.57;;;;;;;-144.73;90.36;54296.88;5005061;28;20438;-73
2023/06/25 06:32:53;;;;;;;16.80;8.00;;;;;;;-144.73;90.26;54321.50;5003801;28;20030;-73
2023/06/25 06:35:18;;;;;;;10.30;7.68;;;;;;;-144.73;88.22;54292.75;5002084;28;20034;-73
2023/06/25 06:37:44;;;;;;;14.55;6.88;;;;;;;-144.73;89.35;54366.66;5002474;28;20109;-73
2023/06/25 06:40:09;;;;;;;10.35;7.45;;;;;;;-144.73;86.63;54321.50;4996292;28;20034;-73
2023/06/25 06:42:35;;;;;;;11.65;6.93;;;;;;;-144.73;80.59;54309.19;5003884;28;20026;-73
2023/06/25 06:45:01;;;;;;;9.43;6.18;;;;;;;-144.73;85.43;54321.50;5002198;28;20075;-73
2023/06/25 06:47:26;;;;;;;10.93;7.38;;;;;;;-144.73;84.75;54317.38;4990260;28;20018;-73
2023/06/25 06:49:52;;;;;;;10.60;6.70;;;;;;;-144.73;85.01;54296.88;5000742;28;20128;-72
2023/06/25 06:52:23;;;;;;;11.23;6.57;;;;;;;-144.73;83.58;54325.59;5010262;28;20080;-73
2023/06/25 06:54:48;;;;;;;13.52;6.65;;;;;;;-144.73;84.57;54286.59;4991787;28;20070;-73
2023/06/25 06:57:13;;;;;;;12.90;6.55;;;;;;;-144.73;84.05;54280.44;4995180;28;20092;-73
2023/06/25 06:59:39;;;;;;;11.98;7.47;;;;;;;-144.73;86.61;54292.75;4997412;28;20514;-73
2023/06/25 07:02:05;;;;;;;12.23;6.75;;;;;;;-144.73;84.35;54296.88;5008001;28;20033;-72
2023/06/25 07:04:30;;;;;;;12.85;7.20;;;;;;;-144.73;84.13;54296.88;4977472;28;20041;-72
2023/06/25 07:06:55;;;;;;;14.88;7.18;;;;;;;-144.73;80.79;54296.88;4984675;28;20022;-72
2023/06/25 07:09:22;;;;;;;8.30;6.57;;;;;;;-144.73;80.26;54329.72;5009086;28;20014;-72
2023/06/25 07:11:48;;;;;;;10.25;6.25;;;;;;;-144.73;78.70;54317.38;4986022;28;20105;-72
2023/06/25 07:14:13;;;;;;;9.70;6.70;;;;;;;-144.73;76.67;54276.34;5009170;28;20129;-72
2023/06/25 07:16:38;;;;;;;12.73;6.25;;;;;;;-144.73;77.64;54329.72;5006264;28;20035;-72
2023/06/25 07:19:04;;;;;;;12.15;6.10;;;;;;;-144.73;79.66;54321.50;5008704;28;20049;-72
2023/06/25 07:21:29;;;;;;;13.07;6.53;;;;;;;-144.73;79.50;54292.75;4985367;28;20037;-72
2023/06/25 07:23:54;;;;;;;13.18;6.40;;;;;;;-144.73;78.68;54311.22;4983169;28;20023;-70
2023/06/25 07:26:20;;;;;;;11.10;6.07;;;;;;;-144.73;76.18;54319.44;5007259;28;20399;-71
2023/06/25 07:28:45;;;;;;;15.20;5.57;;;;;;;-144.73;75.95;54309.19;4983701;28;20399;-71
2023/06/25 07:31:11;;;;;;;11.75;7.50;;;;;;;-144.73;72.81;54280.44;5002442;28;20490;-71
2023/06/25 07:33:36;;;;;;;8.48;6.28;;;;;;;-144.73;73.48;54261.97;4990146;28;20045;-71
2023/06/25 07:36:02;;;;;;;16.60;9.23;;;;;;;-144.73;74.78;54313.28;5002981;28;20117;-71
2023/06/25 07:38:27;;;;;;;12.60;6.47;;;;;;;-144.73;73.93;54284.56;5000894;28;20045;-71
2023/06/25 07:40:52;;;;;;;13.82;7.13;;;;;;;-144.73;73.55;54288.66;4982876;28;20165;-72
2023/06/25 07:43:18;;;;;;;7.85;5.63;;;;;;;-144.73;72.15;54276.34;4992521;28;20119;-71
2023/06/25 07:45:43;;;;;;;12.20;7.00;;;;;;;-144.73;71.30;54255.81;4989037;28;20030;-72
2023/06/25 07:48:09;;;;;;;16.55;6.97;;;;;;;-144.73;69.90;54227.09;5007576;28;20025;-71
2023/06/25 07:50:34;;;;;;;11.60;6.68;;;;;;;-144.73;69.62;54276.34;4990574;28;20050;-72
2023/06/25 07:52:59;;;;;;;12.75;7.25;;;;;;;-144.73;68.19;54292.75;5006963;28;20030;-72
2023/06/25 07:55:25;;;;;;;12.60;6.45;;;;;;;-144.73;70.69;54288.66;5007740;28;20053;-72
2023/06/25 07:57:50;;;;;;;8.02;6.28;;;;;;;-144.73;66.76;54305.06;4991155;28;20033;-72
2023/06/25 08:00:16;;;;;;;11.85;6.85;;;;;;;-144.73;67.78;54268.13;4990383;28;20044;-72
2023/06/25 08:02:41;;;;;;;12.43;7.07;;;;;;;-144.73;65.54;54266.06;4990582;28;20040;-71
2023/06/25 08:05:07;;;;;;;9.30;6.55;;;;;;;-144.73;65.04;54276.34;4989338;28;20053;-72
2023/06/25 08:07:32;;;;;;;9.27;6.68;;;;;;;-144.73;65.80;54218.88;5009333;28;20053;-74
2023/06/25 08:09:58;;;;;;;8.43;6.60;;;;;;;-144.73;65.70;54284.56;4989585;28;20038;-72
2023/06/25 08:12:23;;;;;;;13.45;6.30;;;;;;;-144.73;65.15;54231.19;5008613;28;20033;-72
2023/06/25 08:14:48;;;;;;;10.70;6.15;;;;;;;-144.73;64.63;54247.59;5007785;28;20545;-72
2023/06/25 08:17:14;;;;;;;14.52;6.45;;;;;;;-144.73;64.92;54216.81;5008387;28;20034;-71
2023/06/25 08:19:39;;;;;;;11.52;7.60;;;;;;;-144.73;64.04;54342.03;5006685;28;20116;-73
2023/06/25 08:22:05;;;;;;;12.80;9.00;;;;;;;-144.73;62.79;54239.41;5007334;28;20025;-71
2023/06/25 08:24:30;;;;;;;12.73;7.15;;;;;;;-144.73;63.25;54280.44;4991111;28;20064;-75
2023/06/25 08:26:55;;;;;;;16.70;7.30;;;;;;;-144.73;65.54;54214.78;4991407;28;20390;-76
2023/06/25 08:29:21;;;;;;;9.90;7.32;;;;;;;-144.73;64.03;54342.03;4989636;28;20026;-76
2023/06/25 08:31:46;;;;;;;10.25;6.78;;;;;;;-144.73;62.87;54218.88;4991088;28;20040;-76
2023/06/25 08:34:12;;;;;;;13.48;7.90;;;;;;;-144.73;61.22;54210.66;5008305;28;20065;-76
2023/06/25 08:36:38;;;;;;;11.13;7.60;;;;;;;-144.73;63.06;54225.03;4990592;28;20121;-76
2023/06/25 08:39:03;;;;;;;19.38;10.73;;;;;;;-144.73;60.79;54264.03;4988940;28;20049;-77
2023/06/25 08:41:29;;;;;;;16.45;8.02;;;;;;;-144.73;62.37;54245.56;5005392;28;20065;-79
2023/06/25 08:43:54;;;;;;;12.45;7.85;;;;;;;-144.73;62.74;54210.66;4989554;28;20033;-77
2023/06/25 08:46:25;;;;;;;10.65;6.93;;;;;;;-144.73;62.47;54231.19;5007258;28;20046;-78
2023/06/25 08:48:54;;;;;;;12.77;7.45;;;;;;;-144.73;60.15;54247.59;4989251;28;20077;-76
2023/06/25 08:51:24;;;;;;;10.32;7.20;;;;;;;-144.73;61.71;54253.75;4989670;28;20026;-77
2023/06/25 08:53:49;;;;;;;15.38;8.52;;;;;;;-144.73;64.32;54231.19;4990206;28;20022;-81
2023/06/25 08:56:16;;;;;;;11.73;8.07;;;;;;;-144.73;65.19;54222.97;4990334;28;20036;-78
2023/06/25 08:58:42;;;;;;;11.70;8.27;;;;;;;-144.73;63.36;54204.50;4989652;28;20026;-80
2023/06/25 09:01:07;;;;;;;16.42;8.05;;;;;;;-144.73;61.10;54214.78;4989331;28;20096;-77
2023/06/25 09:03:33;;;;;;;12.35;9.23;;;;;;;-144.73;60.50;54218.88;4994101;28;20105;-77
2023/06/25 09:06:11;;;;;;;14.07;8.57;;;;;;;-144.73;59.74;54233.25;4989571;28;20037;-77
2023/06/25 09:08:39;;;;;;;12.10;9.05;;;;;;;-144.73;59.40;54247.59;5006418;28;20088;-81
2023/06/25 09:11:04;;;;;;;12.02;8.05;;;;;;;-144.73;56.59;54231.19;5005736;28;20423;-76
2023/06/25 09:13:30;;;;;;;15.00;8.77;;;;;;;-144.73;57.93;54214.78;5008309;28;20053;-77
2023/06/25 09:16:06;;;;;;;15.68;8.02;;;;;;;-144.73;57.70;54251.72;4992923;28;20034;-77
2023/06/25 09:18:32;;;;;;;12.60;9.60;;;;;;;-144.73;58.53;54342.03;5010032;28;20018;-78
2023/06/25 09:21:05;;;;;;;13.90;8.02;;;;;;;-144.73;59.69;54231.19;4991199;28;20034;-78
2023/06/25 09:23:31;;;;;;;17.08;8.93;;;;;;;-144.73;57.57;54239.41;5008650;28;20045;-77
2023/06/25 09:25:57;;;;;;;13.40;8.88;;;;;;;-144.73;58.04;54177.81;4990623;28;20050;-77
2023/06/25 09:28:22;;;;;;;10.82;7.57;;;;;;;-144.73;58.64;54198.34;4990903;28;20397;-78
2023/06/25 09:30:47;;;;;;;13.93;7.80;;;;;;;-144.73;56.75;54206.56;4991024;28;20053;-77
2023/06/25 09:33:13;;;;;;;13.50;8.43;;;;;;;-144.73;55.57;54216.81;4991864;28;20057;-76
2023/06/25 09:35:39;;;;;;;15.80;7.65;;;;;;;-144.73;60.27;54198.34;5008594;28;20034;-77
2023/06/25 09:38:05;;;;;;;13.27;9.52;;;;;;;-144.73;58.48;54206.56;4988037;28;20114;-79
2023/06/25 09:40:31;;;;;;;13.13;7.90;;;;;;;-144.73;56.80;54186.03;4990175;28;20042;-80
2023/06/25 09:42:59;;;;;;;10.70;7.75;;;;;;;-144.73;54.23;54255.81;4990154;28;20113;-77
2023/06/25 09:45:25;;;;;;;20.02;7.72;;;;;;;-144.73;51.67;54202.44;5008672;28;20030;-77
2023/06/25 09:47:54;;;;;;;13.32;8.70;;;;;;;-144.73;52.75;54194.25;5007852;28;20030;-76
2023/06/25 09:50:49;;;;;;;18.83;8.77;;;;;;;-144.73;53.22;54225.03;5008498;28;20173;-76
2023/06/25 09:53:21;;;;;;;13.48;8.30;;;;;;;-144.73;51.99;54186.03;4977682;28;20042;-77
2023/06/25 09:55:47;;;;;;;10.55;8.07;;;;;;;-144.73;50.24;54200.41;4989161;28;20034;-77
2023/06/25 09:58:14;;;;;;;12.45;7.90;;;;;;;-144.73;48.32;54181.94;5007598;28;20113;-77
2023/06/25 10:00:40;;;;;;;12.07;6.63;;;;;;;-144.73;50.13;54161.41;4989802;28;20159;-76
2023/06/25 10:03:07;;;;;;;14.20;7.70;;;;;;;-144.73;48.36;54124.47;4993677;28;20025;-78
2023/06/25 10:10:31;;;;;;;12.93;7.93;;;;;;;-144.73;51.08;54173.72;4957274;28;20041;-78
2023/06/25 10:13:15;;;;;;;15.93;8.80;;;;;;;-144.73;51.06;54227.09;5086507;23;20414;-76
2023/06/25 10:15:46;;;;;;;13.52;7.63;;;;;;;-144.73;52.40;54229.13;5019365;28;20037;-76
2023/06/25 10:18:24;;;;;;;13.98;7.15;;;;;;;-144.73;53.12;54235.28;5023802;28;20026;-76
2023/06/25 10:20:50;;;;;;;10.18;7.70;;;;;;;-144.73;49.65;54239.41;5026600;28;20080;-78
2023/06/25 10:23:23;;;;;;;13.20;8.70;;;;;;;-144.73;50.20;54276.34;5018555;28;20041;-77
2023/06/25 10:25:57;;;;;;;12.63;8.02;;;;;;;-144.73;50.42;54181.94;5022035;28;20052;-77
2023/06/25 10:28:30;;;;;;;12.52;7.38;;;;;;;-144.73;48.29;54218.88;5017722;28;20029;-78
2023/06/25 10:30:57;;;;;;;17.60;9.13;;;;;;;-144.73;50.50;54243.50;5019247;28;20083;-77
2023/06/25 10:33:23;;;;;;;11.25;7.78;;;;;;;-144.73;52.37;54255.81;5018574;28;20030;-75
2023/06/25 10:35:58;;;;;;;11.68;7.68;;;;;;;-144.73;54.29;54247.59;5013596;28;20030;-75
2023/06/25 10:38:24;;;;;;;14.40;8.40;;;;;;;-144.73;53.04;54276.34;5019448;28;20104;-75
2023/06/25 10:40:54;;;;;;;15.43;7.93;;;;;;;-144.73;52.08;54210.66;5013115;28;20063;-76
2023/06/25 10:43:20;;;;;;;11.20;7.57;;;;;;;-144.73;53.17;54218.88;5016695;28;20021;-76
2023/06/25 10:45:56;;;;;;;12.50;7.53;;;;;;;-144.73;50.86;54239.41;5015677;28;20045;-76
2023/06/25 10:48:24;;;;;;;8.23;7.10;;;;;;;-144.73;52.14;54206.56;5022055;28;20030;-76
2023/06/25 10:50:51;;;;;;;13.38;8.15;;;;;;;-144.73;53.90;54198.34;5022237;28;20131;-77
2023/06/25 10:53:19;;;;;;;12.23;6.80;;;;;;;-144.73;49.03;54198.34;5022264;28;20108;-76
2023/06/25 10:55:46;;;;;;;8.13;6.38;;;;;;;-144.73;48.10;54165.50;5023649;28;20014;-77
2023/06/25 10:58:20;;;;;;;14.60;7.13;;;;;;;-144.73;47.22;54173.72;5019572;28;20040;-76
2023/06/25 11:00:53;;;;;;;8.43;7.28;;;;;;;-144.73;47.84;54132.69;5017101;28;20034;-74
2023/06/25 11:03:18;;;;;;;9.40;6.78;;;;;;;-144.73;44.83;54194.25;5016890;28;20033;-74